Time;durP1;ratioP1;P1;durP2;ratioP2;P2;SDS_P1;SDS_P2;PMS_P1;PMS_P2;Temp;Humidity;BMP_temperature;BMP_pressure;BME280_temperature;BME280_humidity;BME280_pressure;Samples;Min_cycle;Max_cycle;Signal;HPM_P1;HPM_P2
2022/08/23 00:01:28;;;;;;;6.45;2.92;;;;;;;24.20;47.07;101307.09;4971380;28;20478;-64
2022/08/23 00:03:56;;;;;;;7.38;2.92;;;;;;;24.21;46.86;101299.94;4976240;28;20038;-65
2022/08/23 00:06:22;;;;;;;6.35;2.65;;;;;;;24.22;46.87;101302.44;4970308;28;20104;-63
2022/08/23 00:08:50;;;;;;;5.75;2.92;;;;;;;24.23;47.03;101300.63;4972270;28;20109;-65
2022/08/23 00:11:28;;;;;;;5.63;2.85;;;;;;;24.21;47.07;101295.47;4974649;28;20076;-66
2022/08/23 00:13:55;;;;;;;5.30;2.60;;;;;;;24.17;47.04;101301.25;4969178;28;20122;-66
2022/08/23 00:16:20;;;;;;;5.47;2.35;;;;;;;24.20;46.93;101303.59;4970111;28;20045;-65
2022/08/23 00:18:45;;;;;;;4.37;2.60;;;;;;;24.18;46.83;101300.22;4977863;28;20031;-65
2022/08/23 00:21:12;;;;;;;5.70;2.97;;;;;;;24.13;46.77;101292.69;4980959;28;20343;-63
2022/08/23 00:23:37;;;;;;;6.53;2.75;;;;;;;24.14;47.14;101299.72;4978322;28;20046;-65
2022/08/23 00:26:03;;;;;;;6.72;2.90;;;;;;;24.15;47.19;101297.88;4973342;28;20034;-65
2022/08/23 00:28:30;;;;;;;4.55;2.40;;;;;;;24.12;47.28;101296.38;4977202;28;20026;-67
2022/08/23 00:30:56;;;;;;;5.90;2.85;;;;;;;24.12;47.35;101298.22;4963268;28;20089;-65
2022/08/23 00:33:22;;;;;;;7.15;2.85;;;;;;;24.09;47.10;101288.69;4964228;28;20382;-64
2022/08/23 00:35:47;;;;;;;5.40;2.58;;;;;;;24.11;46.95;101297.34;4969659;28;20030;-64
2022/08/23 00:38:12;;;;;;;5.10;2.67;;;;;;;24.06;46.85;101291.66;4973185;28;20092;-66
2022/08/23 00:40:38;;;;;;;7.80;3.20;;;;;;;24.06;47.38;101295.16;4981645;28;20422;-64
2022/08/23 00:49:11;;;;;;;6.10;2.97;;;;;;;24.06;46.81;101296.97;4966227;28;20037;-64
2022/08/23 00:51:50;;;;;;;6.10;2.83;;;;;;;24.03;46.79;101294.63;4980499;28;20471;-65
2022/08/23 00:54:17;;;;;;;5.20;2.75;;;;;;;24.06;46.91;101299.66;4975781;28;20039;-65
2022/08/23 00:56:43;;;;;;;4.65;2.60;;;;;;;24.02;47.16;101290.28;4973089;28;20035;-65
2022/08/23 00:59:08;;;;;;;6.22;3.20;;;;;;;24.03;47.44;101295.44;4965262;28;20035;-65
2022/08/23 01:01:34;;;;;;;7.97;2.75;;;;;;;24.04;47.23;101304.28;4970770;28;20030;-66
2022/08/23 01:04:00;;;;;;;5.68;2.80;;;;;;;24.04;47.44;101310.44;4976922;28;20466;-64
2022/08/23 01:06:31;;;;;;;7.32;3.00;;;;;;;23.98;47.52;101300.41;4977583;28;20040;-64
2022/08/23 01:09:10;;;;;;;5.30;2.72;;;;;;;23.97;47.54;101301.38;4981627;28;20505;-66
2022/08/23 01:11:40;;;;;;;6.00;3.00;;;;;;;24.01;47.16;101312.59;4972832;28;20093;-65
2022/08/23 01:14:24;;;;;;;4.88;2.70;;;;;;;23.96;47.29;101296.22;4962563;28;20035;-65
2022/08/23 01:17:08;;;;;;;8.45;2.90;;;;;;;23.94;47.04;101293.72;4962650;28;20054;-67
2022/08/23 01:19:42;;;;;;;6.32;2.70;;;;;;;23.98;46.98;101302.25;4965469;28;20348;-65
2022/08/23 01:22:14;;;;;;;6.50;2.85;;;;;;;23.95;47.23;101300.72;4977373;28;20127;-65
2022/08/23 01:24:41;;;;;;;5.10;2.78;;;;;;;23.94;47.30;101301.72;4985645;28;20038;-67
2022/08/23 01:27:07;;;;;;;4.90;2.80;;;;;;;23.93;47.66;101301.88;4985574;28;20050;-68
2022/08/23 01:29:33;;;;;;;5.57;2.78;;;;;;;23.93;47.36;101304.53;4980379;28;20458;-65
2022/08/23 01:32:01;;;;;;;5.63;2.50;;;;;;;23.92;47.31;101318.81;4966408;28;20026;-65
2022/08/23 01:34:27;;;;;;;5.15;3.00;;;;;;;23.94;47.38;101322.16;4970804;28;20053;-64
2022/08/23 01:36:54;;;;;;;6.90;2.90;;;;;;;23.92;47.39;101313.50;4985206;28;20030;-66
2022/08/23 01:39:19;;;;;;;4.60;2.70;;;;;;;23.92;47.67;101322.31;4985454;28;20490;-64
2022/08/23 01:41:44;;;;;;;7.53;3.08;;;;;;;23.90;47.64;101319.78;4974514;28;20110;-64
2022/08/23 01:44:10;;;;;;;6.63;2.95;;;;;;;23.86;47.96;101313.13;4974952;28;20113;-66
2022/08/23 01:46:35;;;;;;;6.03;2.80;;;;;;;23.84;47.90;101312.41;4971140;28;20081;-63
2022/08/23 01:49:04;;;;;;;6.00;2.70;;;;;;;23.88;48.13;101318.28;4976348;28;20323;-63
2022/08/23 01:51:31;;;;;;;5.22;2.80;;;;;;;23.75;47.80;101299.16;4984923;28;20631;-64
2022/08/23 01:53:56;;;;;;;8.52;3.30;;;;;;;23.84;47.96;101319.56;4973209;28;20038;-64
2022/08/23 01:56:23;;;;;;;6.13;2.78;;;;;;;23.86;47.57;101314.91;4976211;28;20854;-67
2022/08/23 01:58:49;;;;;;;5.63;2.95;;;;;;;23.83;47.46;101310.75;4966520;28;20035;-65
2022/08/23 02:01:16;;;;;;;4.68;2.42;;;;;;;23.85;47.47;101315.94;4984743;28;20037;-64
2022/08/23 02:03:41;;;;;;;5.70;2.78;;;;;;;23.81;47.21;101306.53;4984986;28;20109;-66
2022/08/23 02:06:07;;;;;;;5.53;2.75;;;;;;;23.81;47.65;101309.19;4983710;28;20225;-65
2022/08/23 02:11:20;;;;;;;6.03;3.00;;;;;;;23.79;47.28;101306.69;4966052;28;20044;-65
2022/08/23 02:13:47;;;;;;;8.00;2.80;;;;;;;23.80;47.60;101313.69;4978700;28;20049;-65
2022/08/23 02:16:21;;;;;;;5.75;2.70;;;;;;;23.82;47.51;101306.38;4975659;28;20034;-63
2022/08/23 02:18:46;;;;;;;7.07;3.08;;;;;;;23.83;47.46;101312.53;4984443;28;20034;-64
2022/08/23 02:21:11;;;;;;;5.15;2.88;;;;;;;23.82;47.45;101308.22;4971724;28;20565;-66
2022/08/23 02:23:36;;;;;;;6.43;3.17;;;;;;;23.77;47.57;101310.50;4976040;28;20124;-64
2022/08/23 02:26:02;;;;;;;5.75;2.92;;;;;;;23.78;47.75;101315.63;4984640;28;20696;-64
2022/08/23 02:28:27;;;;;;;6.67;3.50;;;;;;;23.81;47.56;101320.66;4984304;28;20128;-67
2022/08/23 02:30:52;;;;;;;5.33;3.00;;;;;;;23.76;47.89;101306.97;4984172;28;20267;-64
2022/08/23 02:33:18;;;;;;;4.72;3.03;;;;;;;23.77;47.49;101306.00;4965055;28;20300;-66
2022/08/23 02:35:43;;;;;;;4.70;2.83;;;;;;;23.76;47.76;101300.81;4969677;28;20037;-64
2022/08/23 02:38:11;;;;;;;5.60;3.28;;;;;;;23.79;47.33;101313.84;4981266;28;20030;-63
2022/08/23 02:40:37;;;;;;;7.45;3.05;;;;;;;23.75;47.63;101307.13;4974401;28;20038;-67
2022/08/23 02:43:05;;;;;;;6.63;3.20;;;;;;;23.74;47.57;101298.31;4972635;28;20045;-65
2022/08/23 02:45:31;;;;;;;6.57;3.20;;;;;;;23.72;47.61;101303.78;4965164;28;20030;-65
2022/08/23 02:47:56;;;;;;;5.90;3.08;;;;;;;23.75;47.75;101313.31;4968041;28;20034;-65
2022/08/23 02:50:22;;;;;;;5.78;3.30;;;;;;;23.76;47.46;101309.63;4981329;28;20145;-68
2022/08/23 02:52:47;;;;;;;5.53;2.95;;;;;;;23.73;47.57;101310.81;4964668;28;20034;-64
2022/08/23 02:55:13;;;;;;;6.85;3.17;;;;;;;23.77;47.02;101318.47;4969444;28;20046;-64
2022/08/23 02:57:39;;;;;;;5.53;3.10;;;;;;;23.77;47.42;101327.28;4964390;28;20037;-65
2022/08/23 03:00:08;;;;;;;6.63;3.08;;;;;;;23.77;47.28;101324.63;4965434;28;20027;-66
2022/08/23 03:02:35;;;;;;;6.20;3.22;;;;;;;23.70;47.39;101316.41;4978159;28;20038;-64
2022/08/23 03:05:00;;;;;;;6.00;3.30;;;;;;;23.75;47.29;101320.44;4983724;28;20045;-65
2022/08/23 03:07:25;;;;;;;6.20;3.20;;;;;;;23.74;47.08;101327.59;4977383;28;20031;-65
2022/08/23 03:09:51;;;;;;;5.88;3.08;;;;;;;23.70;47.40;101315.56;4977051;28;20043;-63
2022/08/23 03:12:16;;;;;;;5.80;3.20;;;;;;;23.69;47.72;101319.22;4974459;28;20036;-64
2022/08/23 03:14:41;;;;;;;5.43;3.27;;;;;;;23.69;47.47;101320.06;4981754;28;20276;-64
2022/08/23 03:17:07;;;;;;;4.57;3.00;;;;;;;23.70;47.50;101323.53;4964017;28;20269;-64
2022/08/23 03:19:32;;;;;;;6.13;3.40;;;;;;;23.72;47.62;101325.06;4981058;28;20034;-65
2022/08/23 03:21:58;;;;;;;5.72;3.10;;;;;;;23.69;47.66;101322.72;4974941;28;20034;-64
2022/08/23 03:24:24;;;;;;;5.03;3.13;;;;;;;23.69;47.47;101328.03;4964437;28;20391;-64
2022/08/23 03:26:50;;;;;;;6.07;3.33;;;;;;;23.68;47.48;101328.19;4963759;28;20085;-64
2022/08/23 03:29:15;;;;;;;7.50;3.70;;;;;;;23.71;47.29;101339.34;4964220;28;20078;-67
2022/08/23 03:31:41;;;;;;;5.65;3.20;;;;;;;23.67;47.61;101331.81;4963655;28;20085;-64
2022/08/23 03:34:07;;;;;;;6.93;3.35;;;;;;;23.67;47.31;101327.34;4963961;28;20488;-64
2022/08/23 03:36:32;;;;;;;6.38;3.10;;;;;;;23.70;47.83;101335.03;4976547;28;20472;-64
2022/08/23 03:38:59;;;;;;;6.97;3.30;;;;;;;23.66;47.71;101331.00;4983050;28;20454;-65
2022/08/23 03:41:25;;;;;;;7.07;3.55;;;;;;;23.67;47.65;101334.47;4982450;28;20161;-67
2022/08/23 03:43:51;;;;;;;6.10;3.38;;;;;;;23.66;47.75;101336.31;4982929;28;20113;-66
2022/08/23 03:46:25;;;;;;;6.28;3.40;;;;;;;23.72;47.89;101342.88;4972438;28;20034;-64
2022/08/23 03:48:54;;;;;;;5.88;3.17;;;;;;;23.68;47.52;101336.16;4963820;28;20030;-64
2022/08/23 03:51:20;;;;;;;5.13;3.00;;;;;;;23.70;47.46;101332.38;4971338;28;20034;-64
2022/08/23 03:53:46;;;;;;;5.10;3.45;;;;;;;23.67;47.49;101330.03;4982747;28;20034;-67
2022/08/23 03:56:45;;;;;;;6.50;3.42;;;;;;;23.72;47.91;101341.03;4973089;28;20041;-64
2022/08/23 03:59:11;;;;;;;5.80;3.10;;;;;;;23.71;47.45;101343.84;4962744;28;20113;-64
2022/08/23 04:01:36;;;;;;;4.68;3.15;;;;;;;23.72;47.61;101342.88;4978622;28;20030;-65
2022/08/23 04:04:02;;;;;;;7.13;3.25;;;;;;;23.67;47.54;101340.66;4970483;28;20038;-65
2022/08/23 04:06:28;;;;;;;5.45;3.25;;;;;;;23.67;47.90;101340.66;4982935;28;20462;-65
2022/08/23 04:08:54;;;;;;;5.20;3.15;;;;;;;23.67;47.23;101339.81;4974002;28;20074;-63
2022/08/23 04:11:21;;;;;;;6.70;3.25;;;;;;;23.69;47.38;101349.31;4980138;28;20065;-64
2022/08/23 04:13:46;;;;;;;5.35;2.95;;;;;;;23.69;47.90;101346.66;4982692;28;20034;-68
2022/08/23 04:16:12;;;;;;;7.27;3.47;;;;;;;23.69;47.49;101346.66;4982469;28;20031;-65
2022/08/23 04:18:38;;;;;;;6.30;3.65;;;;;;;23.70;47.89;101350.16;4977893;28;20283;-64
2022/08/23 04:21:09;;;;;;;6.38;3.38;;;;;;;23.68;47.61;101344.97;4963157;28;20035;-63
2022/08/23 04:23:35;;;;;;;5.50;3.20;;;;;;;23.54;47.60;101324.19;4963354;28;20034;-64
2022/08/23 04:26:00;;;;;;;6.57;3.70;;;;;;;23.69;47.90;101351.16;4967786;28;20101;-65
2022/08/23 04:28:26;;;;;;;6.30;3.50;;;;;;;23.69;47.58;101354.66;4982295;28;20122;-64
2022/08/23 04:30:51;;;;;;;5.97;3.50;;;;;;;23.67;47.48;101361.09;4982078;28;20437;-65
2022/08/23 04:33:17;;;;;;;6.32;3.90;;;;;;;23.69;47.61;101364.47;4971259;28;20035;-64
2022/08/23 04:35:43;;;;;;;7.32;3.60;;;;;;;23.68;47.71;101362.78;4963458;28;20035;-64
2022/08/23 04:38:08;;;;;;;6.38;3.65;;;;;;;23.63;47.89;101351.75;4963631;28;20037;-63
2022/08/23 04:43:18;;;;;;;7.55;3.70;;;;;;;23.68;47.72;101368.94;4978200;28;20073;-64
2022/08/23 04:45:43;;;;;;;7.10;3.88;;;;;;;23.67;47.79;101369.94;4975262;28;20074;-65
2022/08/23 04:48:09;;;;;;;6.85;3.60;;;;;;;23.63;47.86;101362.41;4965217;28;20041;-64
2022/08/23 04:50:35;;;;;;;6.65;3.65;;;;;;;23.65;47.63;101371.88;4962741;28;20046;-68
2022/08/23 04:53:01;;;;;;;6.32;3.92;;;;;;;23.64;47.88;101367.56;4972434;28;20042;-65
2022/08/23 04:55:27;;;;;;;6.28;3.42;;;;;;;23.66;48.18;101378.88;4966444;28;20031;-67
2022/08/23 04:57:53;;;;;;;6.45;3.65;;;;;;;23.67;47.54;101385.03;4963058;28;20605;-64
2022/08/23 05:00:18;;;;;;;6.57;4.13;;;;;;;23.66;47.80;101386.88;4972301;28;20039;-67
2022/08/23 05:02:45;;;;;;;5.43;3.45;;;;;;;23.68;47.79;101382.22;4962618;28;20069;-66
2022/08/23 05:05:10;;;;;;;6.18;3.83;;;;;;;23.65;47.86;101371.88;4962735;28;20050;-64
2022/08/23 05:07:37;;;;;;;7.30;3.70;;;;;;;23.70;47.77;101384.75;4973771;28;20056;-64
2022/08/23 05:10:08;;;;;;;6.22;3.78;;;;;;;23.59;47.71;101367.19;4980199;28;20379;-65
2022/08/23 05:12:34;;;;;;;8.25;3.85;;;;;;;23.65;48.27;101381.69;4981782;28;20133;-65
2022/08/23 05:14:59;;;;;;;6.78;4.03;;;;;;;23.63;48.23;101373.03;4973875;28;20029;-68
2022/08/23 05:17:25;;;;;;;7.45;4.50;;;;;;;23.65;48.27;101379.03;4962503;28;20452;-67
2022/08/23 05:19:50;;;;;;;7.78;3.97;;;;;;;23.65;48.04;101379.03;4962581;28;20045;-67
2022/08/23 05:22:16;;;;;;;6.97;3.80;;;;;;;23.59;48.43;101366.31;4962306;28;20030;-66
2022/08/23 05:24:41;;;;;;;6.32;3.83;;;;;;;23.72;48.46;101385.47;4962362;28;20039;-65
2022/08/23 05:27:06;;;;;;;7.57;4.30;;;;;;;23.67;48.06;101375.25;4962468;28;20054;-64
2022/08/23 05:29:32;;;;;;;7.60;4.43;;;;;;;23.70;48.37;101385.59;4964210;28;20300;-64
2022/08/23 05:31:57;;;;;;;6.88;3.83;;;;;;;23.68;48.32;101384.88;4962575;28;20394;-68
2022/08/23 05:34:24;;;;;;;7.97;3.92;;;;;;;23.73;48.14;101395.09;4963041;28;20375;-63
2022/08/23 05:36:50;;;;;;;5.93;3.97;;;;;;;23.70;48.29;101388.25;4981570;28;20026;-64
2022/08/23 05:39:15;;;;;;;6.30;3.63;;;;;;;23.73;48.35;101398.59;4980079;28;20022;-64
2022/08/23 05:41:41;;;;;;;6.38;3.92;;;;;;;23.73;48.99;101411.91;4969748;28;20034;-64
2022/08/23 05:44:07;;;;;;;6.78;3.60;;;;;;;23.75;48.47;101418.91;4962135;28;20109;-64
2022/08/23 05:46:33;;;;;;;7.50;3.55;;;;;;;23.75;48.74;101419.75;4966012;28;20062;-64
2022/08/23 05:48:58;;;;;;;7.38;3.60;;;;;;;23.74;48.74;101420.72;4979730;28;20534;-65
2022/08/23 05:51:26;;;;;;;6.60;3.65;;;;;;;23.71;48.56;101421.84;4969530;28;20403;-64
2022/08/23 05:53:53;;;;;;;5.45;3.42;;;;;;;23.72;48.80;101418.22;4971658;28;20114;-66
2022/08/23 05:56:23;;;;;;;8.05;3.70;;;;;;;23.76;48.44;101425.91;4981503;28;20033;-63
2022/08/23 05:58:51;;;;;;;7.07;3.85;;;;;;;23.79;48.70;101425.59;4981204;28;20450;-64
2022/08/23 06:01:20;;;;;;;5.88;3.78;;;;;;;23.79;48.49;101420.28;4971663;28;20045;-63
2022/08/23 06:03:46;;;;;;;6.53;3.88;;;;;;;23.80;48.99;101425.47;4976887;28;20889;-64
2022/08/23 06:06:14;;;;;;;6.70;4.45;;;;;;;23.70;49.64;101438.81;4975819;28;20045;-67
2022/08/23 06:08:40;;;;;;;10.15;4.75;;;;;;;23.54;50.49;101438.59;4985856;28;20033;-66
2022/08/23 06:11:12;;;;;;;6.80;4.80;;;;;;;23.39;50.66;101426.78;4980086;28;20038;-68
2022/08/23 06:13:40;;;;;;;9.15;4.88;;;;;;;23.25;51.22;101430.72;4984830;28;20030;-66
2022/08/23 06:16:06;;;;;;;9.55;5.47;;;;;;;23.15;51.65;101436.91;4973809;28;20360;-66
2022/08/23 06:18:31;;;;;;;9.38;4.68;;;;;;;22.98;51.55;101422.47;4965630;28;20039;-66
2022/08/23 06:21:08;;;;;;;12.65;5.40;;;;;;;22.90;52.25;101429.50;4973981;28;20042;-67
2022/08/23 06:23:35;;;;;;;9.70;5.13;;;;;;;22.80;52.19;101438.31;4975770;28;20479;-66
2022/08/23 06:26:01;;;;;;;9.52;5.40;;;;;;;22.73;52.91;101441.69;4969020;28;20058;-66
2022/08/23 06:28:28;;;;;;;9.30;5.60;;;;;;;22.70;52.74;101445.47;4984424;28;20034;-67
2022/08/23 06:30:56;;;;;;;9.27;5.43;;;;;;;22.67;53.05;101444.91;4981667;28;20030;-69
2022/08/23 06:33:23;;;;;;;11.52;5.20;;;;;;;22.62;53.03;101440.84;4969850;28;20026;-68
2022/08/23 06:35:49;;;;;;;9.15;5.20;;;;;;;22.60;52.83;101431.34;4971524;28;20485;-68
2022/08/23 06:38:16;;;;;;;8.30;5.78;;;;;;;22.54;52.95;101426.59;4973283;28;20035;-66
2022/08/23 06:40:42;;;;;;;11.18;5.55;;;;;;;22.53;53.56;101439.03;4966384;28;20486;-64
2022/08/23 06:43:07;;;;;;;9.40;5.55;;;;;;;22.54;53.64;101437.22;4972266;28;20034;-67
2022/08/23 06:45:33;;;;;;;8.85;5.65;;;;;;;22.56;53.02;101440.59;4974285;28;20057;-65
2022/08/23 06:47:58;;;;;;;10.07;6.00;;;;;;;22.53;53.00;101435.56;4983949;28;20038;-65
2022/08/23 06:50:24;;;;;;;8.00;5.80;;;;;;;22.54;53.22;101432.75;4980199;28;20031;-66
2022/08/23 06:52:49;;;;;;;8.95;6.43;;;;;;;22.56;53.08;101430.78;4977807;28;20038;-66
2022/08/23 06:55:15;;;;;;;9.60;5.97;;;;;;;22.52;52.71;101424.06;4969758;28;20033;-66
2022/08/23 06:57:41;;;;;;;10.32;6.35;;;;;;;22.60;52.67;101436.66;4982725;28;20439;-65
2022/08/23 07:00:09;;;;;;;9.38;6.20;;;;;;;22.57;52.47;101431.63;4964741;28;20512;-65
2022/08/23 07:02:34;;;;;;;8.85;6.47;;;;;;;22.60;52.20;101434.81;4983417;28;20030;-65
2022/08/23 07:05:00;;;;;;;9.85;6.80;;;;;;;22.61;51.93;101430.38;4981156;28;20940;-66
2022/08/23 07:07:25;;;;;;;11.20;6.83;;;;;;;22.67;51.96;101436.94;4964917;28;20486;-66
2022/08/23 07:09:51;;;;;;;11.80;6.93;;;;;;;22.67;51.90;101432.47;4977378;28;20272;-65
2022/08/23 07:12:18;;;;;;;9.77;6.70;;;;;;;22.67;52.71;101435.13;4970856;28;20268;-68
2022/08/23 07:14:44;;;;;;;9.00;6.00;;;;;;;22.72;51.73;101438.19;4982969;28;20057;-65
2022/08/23 07:17:10;;;;;;;10.55;6.72;;;;;;;22.72;52.00;101437.38;4978166;28;20558;-65
2022/08/23 07:19:35;;;;;;;9.30;5.93;;;;;;;22.76;51.87;101441.41;4971531;28;20031;-67
2022/08/23 07:22:03;;;;;;;9.40;5.00;;;;;;;22.84;52.38;101446.84;4963798;28;20042;-67
2022/08/23 07:24:29;;;;;;;8.00;4.70;;;;;;;22.92;51.68;101447.00;4975390;28;20475;-68
2022/08/23 07:26:55;;;;;;;9.00;4.78;;;;;;;23.08;51.63;101450.91;4983039;28;20065;-68
2022/08/23 07:29:21;;;;;;;8.83;4.87;;;;;;;23.15;51.57;101446.72;4983065;28;20027;-68
2022/08/23 07:31:50;;;;;;;6.85;4.40;;;;;;;23.25;51.19;101452.81;4970066;28;20322;-75
2022/08/23 07:34:16;;;;;;;8.85;4.65;;;;;;;23.28;50.92;101467.66;4966559;28;20501;-74
2022/08/23 07:36:44;;;;;;;6.90;3.97;;;;;;;23.32;51.41;101466.38;4964422;28;20114;-72
2022/08/23 07:39:11;;;;;;;7.57;4.18;;;;;;;23.35;51.18;101463.44;4982465;28;20470;-73
2022/08/23 07:41:37;;;;;;;9.13;4.70;;;;;;;23.39;50.77;101459.50;4974255;28;20479;-74
2022/08/23 07:44:04;;;;;;;7.18;4.40;;;;;;;23.48;50.70;101463.97;4968728;28;20798;-77
2022/08/23 07:46:31;;;;;;;8.98;4.60;;;;;;;23.52;50.38;101465.34;4969320;28;20085;-74
2022/08/23 07:48:58;;;;;;;8.27;4.90;;;;;;;23.65;50.20;101469.50;4963046;28;20097;-76
2022/08/23 07:51:25;;;;;;;8.38;4.40;;;;;;;23.72;50.26;101466.13;4978866;28;20027;-73
2022/08/23 07:53:50;;;;;;;7.55;4.18;;;;;;;23.77;49.94;101470.16;4978143;28;20359;-71
2022/08/23 07:56:19;;;;;;;8.27;4.80;;;;;;;23.85;50.05;101475.63;4963683;28;20037;-70
2022/08/23 07:58:44;;;;;;;6.55;4.13;;;;;;;23.90;49.87;101479.50;4976104;28;20374;-75
2022/08/23 08:01:20;;;;;;;7.85;4.30;;;;;;;23.97;49.77;101476.25;4982282;28;20042;-74
2022/08/23 08:03:48;;;;;;;7.65;4.45;;;;;;;23.97;49.52;101465.59;4980358;28;20483;-74
2022/08/23 08:06:20;;;;;;;8.18;4.25;;;;;;;24.01;49.79;101473.16;4979439;28;20594;-73
2022/08/23 08:08:47;;;;;;;7.47;4.53;;;;;;;24.09;49.41;101477.72;4981880;28;20034;-72
2022/08/23 08:11:17;;;;;;;9.88;4.43;;;;;;;24.14;49.60;101488.75;4979622;28;20772;-74
2022/08/23 08:13:44;;;;;;;11.35;4.30;;;;;;;24.13;49.69;101481.75;4981528;28;20034;-72
2022/08/23 08:16:18;;;;;;;7.90;4.13;;;;;;;24.19;49.65;101491.81;4980297;28;20410;-73
2022/08/23 08:18:43;;;;;;;9.07;4.72;;;;;;;24.20;50.07;101492.66;4980899;28;20811;-66
2022/08/23 08:21:13;;;;;;;8.68;4.43;;;;;;;24.18;49.55;101487.50;4965532;28;20030;-66
2022/08/23 08:23:38;;;;;;;7.03;3.67;;;;;;;24.21;49.66;101489.00;4978839;28;20113;-67
2022/08/23 08:26:06;;;;;;;7.85;3.22;;;;;;;24.21;49.38;101481.88;4981207;28;20121;-67
2022/08/23 08:28:32;;;;;;;6.95;3.42;;;;;;;24.30;48.90;101487.28;4963769;28;20113;-67
2022/08/23 08:30:57;;;;;;;5.68;3.40;;;;;;;24.36;48.94;101486.69;4979197;28;20036;-67
2022/08/23 08:33:26;;;;;;;6.47;3.67;;;;;;;24.36;48.89;101492.84;4981568;28;20026;-68
2022/08/23 08:35:52;;;;;;;7.03;3.65;;;;;;;24.43;49.02;101490.41;4975262;28;20041;-66
2022/08/23 08:38:17;;;;;;;5.70;3.30;;;;;;;24.43;48.95;101487.75;4981856;28;20034;-66
2022/08/23 08:40:43;;;;;;;6.80;3.45;;;;;;;24.45;48.58;101489.28;4968256;28;20925;-66
2022/08/23 08:43:46;;;;;;;6.50;3.65;;;;;;;24.48;48.83;101490.78;4972560;28;20052;-62
2022/08/23 08:46:25;;;;;;;8.30;3.58;;;;;;;24.45;48.80;101491.09;4968594;28;20046;-63
2022/08/23 08:48:56;;;;;;;8.48;3.40;;;;;;;24.51;48.66;101498.47;4962470;28;20105;-62
2022/08/23 08:51:31;;;;;;;6.15;3.88;;;;;;;24.50;49.12;101506.63;4962449;28;20058;-61
2022/08/23 08:53:58;;;;;;;6.57;3.53;;;;;;;24.49;48.67;101496.97;4973730;28;20026;-60
2022/08/23 08:56:29;;;;;;;7.30;3.40;;;;;;;24.50;48.90;101501.28;4981786;28;20852;-64
2022/08/23 08:59:00;;;;;;;8.13;3.40;;;;;;;24.50;48.77;101495.94;4982065;28;20073;-64
2022/08/23 09:01:27;;;;;;;6.38;3.40;;;;;;;24.48;49.12;101498.78;4963660;28;20030;-64
2022/08/23 09:03:55;;;;;;;6.55;3.13;;;;;;;24.50;49.35;101509.28;4971509;28;20031;-66
2022/08/23 09:06:27;;;;;;;6.97;3.15;;;;;;;24.51;48.91;101518.97;4965554;28;20042;-64
2022/08/23 09:09:23;;;;;;;8.55;2.67;;;;;;;24.51;49.28;101510.97;4973714;28;20109;-73
2022/08/23 09:11:58;;;;;;;5.13;2.63;;;;;;;24.51;49.46;101509.13;4966721;28;20073;-68
2022/08/23 09:14:24;;;;;;;4.72;2.60;;;;;;;24.50;49.04;101510.13;4974003;28;20040;-71
2022/08/23 09:16:57;;;;;;;6.63;2.40;;;;;;;24.51;48.96;101509.13;4974178;28;20034;-67
2022/08/23 09:19:23;;;;;;;5.75;2.55;;;;;;;24.62;48.72;101510.78;4974130;28;20070;-68
2022/08/23 09:21:59;;;;;;;6.28;2.85;;;;;;;24.63;48.53;101515.13;4968060;28;20038;-68
2022/08/23 09:24:25;;;;;;;5.63;2.80;;;;;;;24.57;48.87;101507.72;4971255;28;20039;-69
2022/08/23 09:26:52;;;;;;;5.95;2.40;;;;;;;24.62;48.73;101514.28;4976527;28;20058;-70
2022/08/23 09:29:31;;;;;;;4.93;2.70;;;;;;;24.66;49.21;101508.63;4972121;28;20053;-69
2022/08/23 09:32:02;;;;;;;7.07;2.80;;;;;;;24.69;48.70;101513.66;4971493;28;20030;-68
2022/08/23 09:34:36;;;;;;;5.55;2.42;;;;;;;24.67;48.77;101519.13;4978708;28;20100;-73
2022/08/23 09:37:08;;;;;;;5.35;2.90;;;;;;;24.69;48.62;101519.00;4968055;28;20042;-71
2022/08/23 09:39:36;;;;;;;7.25;2.65;;;;;;;24.67;48.78;101518.31;4975692;28;20454;-72
2022/08/23 09:42:05;;;;;;;5.90;2.60;;;;;;;24.68;48.76;101517.34;4974180;28;20026;-76
2022/08/23 09:44:41;;;;;;;4.15;2.30;;;;;;;24.69;48.80;101522.50;4968577;28;20382;-71
2022/08/23 09:47:11;;;;;;;6.47;2.70;;;;;;;24.67;48.76;101510.31;4975002;28;20046;-71
2022/08/23 09:49:36;;;;;;;6.40;2.55;;;;;;;24.57;49.03;101508.56;4966938;28;20125;-71
2022/08/23 09:52:23;;;;;;;5.68;2.50;;;;;;;24.52;49.15;101510.00;4980465;28;20109;-72
2022/08/23 09:55:37;;;;;;;6.25;2.60;;;;;;;24.51;49.43;101508.31;4977214;28;20026;-72
2022/08/23 09:58:14;;;;;;;5.07;2.43;;;;;;;24.53;49.37;101506.31;4970658;28;20077;-72
2022/08/23 10:00:40;;;;;;;5.72;2.97;;;;;;;24.57;49.37;101511.22;4970919;28;20311;-74
2022/08/23 10:03:27;;;;;;;6.68;2.65;;;;;;;24.63;49.47;101513.28;4967838;28;20102;-72
2022/08/23 10:05:58;;;;;;;5.25;2.33;;;;;;;24.66;49.19;101497.97;4986025;28;20367;-73
2022/08/23 10:08:32;;;;;;;4.63;2.20;;;;;;;24.76;49.44;101498.75;4982031;28;20105;-72
2022/08/23 10:11:11;;;;;;;6.13;2.40;;;;;;;24.78;49.34;101491.44;4978286;28;20134;-73
2022/08/23 10:13:40;;;;;;;5.13;2.33;;;;;;;24.81;48.82;101501.78;4969546;28;20559;-73
2022/08/23 10:16:25;;;;;;;6.53;2.50;;;;;;;24.83;49.14;101493.63;4969113;28;20026;-73
2022/08/23 10:19:01;;;;;;;6.50;2.20;;;;;;;24.88;48.94;101496.66;4973896;28;20031;-73
2022/08/23 10:21:59;;;;;;;5.20;2.92;;;;;;;24.96;48.48;101496.75;4971695;28;20427;-74
2022/08/23 10:24:33;;;;;;;5.47;2.42;;;;;;;24.97;48.65;101490.41;4970334;28;20667;-71
2022/08/23 10:29:35;;;;;;;4.95;2.40;;;;;;;25.01;48.74;101496.28;4972628;28;20054;-74
2022/08/23 10:30:01;;;;;;;4.72;2.22;;;;;;;25.02;48.64;101489.97;4970320;28;20852;-78
2022/08/23 10:32:39;;;;;;;5.13;2.33;;;;;;;25.00;48.59;101492.78;4978348;28;20125;-76
2022/08/23 10:35:29;;;;;;;5.45;2.30;;;;;;;25.04;48.60;101498.63;4976994;28;20066;-76
2022/08/23 10:38:25;;;;;;;5.90;2.80;;;;;;;25.04;48.13;101496.81;4969093;28;20041;-72
2022/08/23 10:41:10;;;;;;;7.70;2.42;;;;;;;25.03;48.35;101492.47;4980085;28;20471;-72
2022/08/23 10:43:58;;;;;;;6.22;2.58;;;;;;;24.99;48.49;101491.94;4976878;28;20030;-73
2022/08/23 10:46:28;;;;;;;7.93;2.58;;;;;;;24.95;48.30;101489.75;4974904;28;20033;-74
2022/08/23 10:48:57;;;;;;;4.20;1.90;;;;;;;24.88;48.52;101483.34;4968394;28;20030;-73
2022/08/23 10:51:31;;;;;;;4.47;1.83;;;;;;;24.86;48.85;101482.66;4977367;28;20039;-72
2022/08/23 10:54:02;;;;;;;5.57;2.30;;;;;;;24.84;48.77;101488.16;4972208;28;20066;-72
2022/08/23 10:56:28;;;;;;;4.57;2.13;;;;;;;24.88;48.83;101483.34;4976237;28;20026;-72
2022/08/23 10:59:01;;;;;;;5.68;2.08;;;;;;;24.90;48.44;101478.72;4974813;28;20076;-74
2022/08/23 11:01:42;;;;;;;4.13;1.92;;;;;;;24.94;48.17;101482.72;4975768;28;20045;-76
2022/08/23 11:04:21;;;;;;;3.88;1.90;;;;;;;25.00;48.20;101484.78;4970915;28;20046;-73
2022/08/23 11:06:52;;;;;;;4.95;2.30;;;;;;;25.01;48.42;101481.13;4967259;28;20073;-75
2022/08/23 11:09:20;;;;;;;4.72;2.00;;;;;;;25.02;47.90;101481.97;4968536;28;20034;-76
2022/08/23 11:11:48;;;;;;;5.28;2.10;;;;;;;24.99;48.19;101473.28;4974498;28;20049;-76
2022/08/23 11:14:25;;;;;;;5.30;1.80;;;;;;;25.00;48.00;101471.44;4971603;28;20030;-78
2022/08/23 11:17:00;;;;;;;4.45;1.90;;;;;;;24.97;48.32;101469.91;4974222;28;20540;-77
2022/08/23 11:19:51;;;;;;;7.47;2.35;;;;;;;25.01;48.26;101472.28;4964944;28;20027;-76
2022/08/23 11:22:21;;;;;;;4.43;1.98;;;;;;;25.02;48.22;101480.13;4977583;28;20036;-79
2022/08/23 11:24:53;;;;;;;4.45;1.83;;;;;;;25.05;48.23;101478.97;4975627;28;20042;-74
2022/08/23 11:27:33;;;;;;;6.25;2.10;;;;;;;25.03;48.29;101472.97;4971423;28;20060;-76
2022/08/23 11:30:30;;;;;;;5.25;1.90;;;;;;;25.04;48.52;101472.81;4971609;28;20022;-70
2022/08/23 11:33:07;;;;;;;6.43;2.10;;;;;;;25.06;48.41;101470.00;4955903;28;20031;-68
2022/08/23 11:35:41;;;;;;;6.35;2.03;;;;;;;25.08;48.27;101479.50;4970974;28;20043;-70
2022/08/23 11:38:07;;;;;;;4.95;1.83;;;;;;;25.05;48.05;101471.81;4975409;28;20033;-71
2022/08/23 11:40:56;;;;;;;4.15;1.90;;;;;;;25.13;47.92;101476.38;4974227;28;20066;-71
2022/08/23 11:43:38;;;;;;;3.28;1.60;;;;;;;25.12;47.79;101470.22;4971489;28;20039;-67
2022/08/23 11:46:24;;;;;;;6.25;2.28;;;;;;;25.12;48.45;101483.53;4971253;28;20073;-67